createdAt,value
2022-08-02T00:00:36.086Z,99.90
2022-08-02T00:03:04.257Z,99.90
2022-08-02T00:05:32.428Z,99.90
2022-08-02T00:08:00.510Z,99.90
2022-08-02T00:10:28.992Z,99.90
2022-08-02T00:12:58.925Z,99.90
2022-08-02T00:15:28.594Z,99.90
2022-08-02T00:17:56.700Z,99.90
2022-08-02T00:20:24.934Z,99.90
2022-08-02T00:22:53.018Z,99.90
2022-08-02T00:25:21.233Z,99.90
2022-08-02T00:27:49.387Z,99.90
2022-08-02T00:30:17.602Z,99.90
2022-08-02T00:32:47.157Z,99.90
2022-08-02T00:35:15.298Z,99.90
2022-08-02T00:37:43.934Z,99.90
2022-08-02T00:40:12.934Z,99.90
2022-08-02T00:42:41.749Z,99.90
2022-08-02T00:45:10.566Z,99.90
2022-08-02T00:47:38.727Z,99.90
2022-08-02T00:50:08.782Z,99.90
2022-08-02T00:52:36.903Z,99.90
2022-08-02T00:55:05.726Z,99.90
2022-08-02T00:57:33.870Z,99.90
2022-08-02T01:00:01.992Z,99.90
2022-08-02T01:02:30.139Z,99.90
2022-08-02T01:04:58.313Z,99.90
2022-08-02T01:07:28.050Z,99.90
2022-08-02T01:09:56.144Z,99.90
2022-08-02T01:12:24.255Z,99.90
2022-08-02T01:14:53.387Z,99.90
2022-08-02T01:17:29.904Z,99.90
2022-08-02T01:20:05.532Z,99.90
2022-08-02T01:23:03.581Z,99.90
2022-08-02T01:26:02.110Z,99.90
2022-08-02T01:28:37.358Z,99.90
2022-08-02T01:31:13.822Z,99.90
2022-08-02T01:33:46.657Z,99.90
2022-08-02T01:36:16.701Z,99.90
2022-08-02T01:38:49.214Z,99.90
2022-08-02T01:41:20.244Z,99.90
2022-08-02T01:43:52.580Z,99.90
2022-08-02T01:46:22.657Z,99.90
2022-08-02T01:48:54.551Z,99.90
2022-08-02T01:51:44.989Z,99.90
2022-08-02T01:54:16.546Z,99.90
2022-08-02T01:56:46.577Z,99.90
2022-08-02T01:59:21.815Z,99.90
2022-08-02T02:01:52.423Z,99.90
2022-08-02T02:04:22.364Z,99.90
2022-08-02T02:06:51.475Z,99.90
2022-08-02T02:09:21.019Z,99.90
2022-08-02T02:12:06.023Z,99.90
2022-08-02T02:14:41.915Z,99.90
2022-08-02T02:18:10.635Z,99.90
2022-08-02T02:20:14.138Z,99.90
2022-08-02T02:22:42.681Z,99.90
2022-08-02T02:25:12.308Z,99.90
2022-08-02T02:27:49.363Z,99.90
2022-08-02T02:30:19.669Z,99.90
2022-08-02T02:32:51.511Z,99.90
2022-08-02T02:35:22.325Z,99.90
2022-08-02T02:37:52.312Z,99.90
2022-08-02T02:40:21.706Z,99.90
2022-08-02T02:42:52.072Z,99.90
2022-08-02T02:45:23.118Z,99.90
2022-08-02T02:47:51.987Z,99.90
2022-08-02T02:50:21.672Z,99.90
2022-08-02T02:52:50.677Z,99.90
2022-08-02T02:55:19.479Z,99.90
2022-08-02T02:57:47.919Z,99.90
2022-08-02T03:00:16.498Z,99.90
2022-08-02T03:02:46.606Z,99.90
2022-08-02T03:05:15.774Z,99.90
2022-08-02T03:07:43.902Z,99.90
2022-08-02T03:10:12.698Z,99.90
2022-08-02T03:12:40.826Z,99.90
2022-08-02T03:15:09.455Z,99.90
2022-08-02T03:17:41.723Z,99.90
2022-08-02T03:20:14.400Z,99.90
2022-08-02T03:22:43.109Z,99.90
2022-08-02T03:25:12.369Z,99.90
2022-08-02T03:27:40.645Z,99.90
2022-08-02T03:30:11.590Z,99.90
2022-08-02T03:32:41.786Z,99.90
2022-08-02T03:35:16.606Z,99.90
2022-08-02T03:37:48.015Z,99.90
2022-08-02T03:40:16.858Z,99.90
2022-08-02T03:42:45.372Z,99.90
2022-08-02T03:45:14.723Z,99.90
2022-08-02T03:47:43.771Z,99.90
2022-08-02T03:50:14.292Z,99.90
2022-08-02T03:52:43.615Z,99.90
2022-08-02T03:55:12.630Z,99.90
2022-08-02T03:57:41.722Z,99.90
2022-08-02T04:00:12.980Z,99.90
2022-08-02T04:02:41.082Z,99.90
2022-08-02T04:05:09.818Z,99.90
2022-08-02T04:08:31.810Z,99.90
2022-08-02T04:10:27.858Z,99.90
2022-08-02T04:12:56.382Z,99.90
2022-08-02T04:15:25.220Z,99.90
2022-08-02T04:17:57.690Z,99.90
2022-08-02T04:20:29.728Z,99.90
2022-08-02T04:23:02.639Z,99.90
2022-08-02T04:25:35.556Z,99.90
2022-08-02T04:28:17.158Z,99.90
2022-08-02T04:30:47.740Z,99.90
2022-08-02T04:33:17.606Z,99.90
2022-08-02T04:35:46.340Z,99.90
2022-08-02T04:38:16.686Z,99.90
2022-08-02T04:40:52.805Z,99.90
2022-08-02T04:43:21.470Z,99.90
2022-08-02T04:45:52.997Z,99.90
2022-08-02T04:48:21.758Z,99.90
2022-08-02T04:50:49.906Z,99.90
2022-08-02T04:53:19.636Z,99.90
2022-08-02T04:55:47.858Z,99.90
2022-08-02T04:58:39.418Z,99.90
2022-08-02T05:01:04.577Z,99.90
2022-08-02T05:03:32.730Z,99.90
2022-08-02T05:06:01.625Z,99.90
2022-08-02T05:08:31.055Z,99.90
2022-08-02T05:10:59.316Z,99.90
2022-08-02T05:13:27.378Z,99.90
2022-08-02T05:15:55.498Z,99.90
2022-08-02T05:18:23.651Z,99.90
2022-08-02T05:20:56.458Z,99.90
2022-08-02T05:23:26.323Z,99.90
2022-08-02T05:25:55.759Z,99.90
2022-08-02T05:28:24.211Z,99.90
2022-08-02T05:30:52.358Z,99.90
2022-08-02T05:33:20.469Z,99.90
2022-08-02T05:35:48.601Z,99.90
2022-08-02T05:38:16.715Z,99.90
2022-08-02T05:40:54.420Z,99.90
2022-08-02T05:43:24.663Z,99.90
2022-08-02T05:45:54.545Z,99.90
2022-08-02T05:48:26.523Z,99.90
2022-08-02T05:51:05.473Z,99.90
2022-08-02T05:53:40.018Z,99.90
2022-08-02T05:56:19.508Z,99.90
2022-08-02T05:58:57.952Z,99.90
2022-08-02T06:01:33.604Z,99.90
2022-08-02T06:04:03.026Z,99.90
2022-08-02T06:06:34.342Z,99.90
2022-08-02T06:09:09.934Z,99.90
2022-08-02T06:11:40.271Z,99.90
2022-08-02T06:14:09.727Z,99.90
2022-08-02T06:16:42.511Z,99.90
2022-08-02T06:19:12.671Z,99.90
2022-08-02T06:22:31.367Z,99.90
2022-08-02T06:24:34.237Z,99.90
2022-08-02T06:27:03.711Z,99.90
2022-08-02T06:29:38.857Z,99.90
2022-08-02T06:32:09.846Z,99.90
2022-08-02T06:34:39.202Z,99.90
2022-08-02T06:37:25.540Z,99.90
2022-08-02T06:40:08.914Z,99.90
2022-08-02T06:42:45.241Z,99.90
2022-08-02T06:45:14.698Z,99.90
2022-08-02T06:47:42.794Z,99.90
2022-08-02T06:50:11.697Z,99.90
2022-08-02T06:52:39.887Z,99.90
2022-08-02T06:55:08.996Z,99.90
2022-08-02T06:57:37.149Z,99.90
2022-08-02T07:00:09.128Z,99.90
2022-08-02T07:02:39.717Z,99.90
2022-08-02T07:05:09.263Z,99.90
2022-08-02T07:07:37.406Z,99.90
2022-08-02T07:10:06.143Z,99.90
2022-08-02T07:12:35.407Z,99.90
2022-08-02T07:15:05.577Z,99.90
2022-08-02T07:17:34.064Z,99.90
2022-08-02T07:20:04.345Z,99.90
2022-08-02T07:22:32.547Z,99.90
2022-08-02T07:25:01.483Z,99.90
2022-08-02T07:27:30.120Z,99.90
2022-08-02T07:29:58.662Z,99.90
2022-08-02T07:32:28.413Z,99.90
2022-08-02T07:34:57.422Z,99.90
2022-08-02T07:37:53.550Z,99.90
2022-08-02T07:40:19.960Z,99.90
2022-08-02T07:42:49.627Z,99.90
2022-08-02T07:45:17.817Z,99.90
2022-08-02T07:47:46.501Z,99.90
2022-08-02T07:50:16.525Z,99.90
2022-08-02T07:52:46.850Z,99.90
2022-08-02T07:55:17.770Z,99.90
2022-08-02T07:57:47.334Z,99.90
2022-08-02T08:00:17.706Z,99.90
2022-08-02T08:02:46.580Z,99.90
2022-08-02T08:05:15.048Z,99.90
2022-08-02T08:07:43.079Z,99.90
2022-08-02T08:10:12.843Z,99.90
2022-08-02T08:12:40.994Z,99.90
2022-08-02T08:15:10.224Z,99.90
2022-08-02T08:17:38.696Z,99.90
2022-08-02T08:20:07.910Z,99.90
2022-08-02T08:22:35.957Z,99.90
2022-08-02T08:25:04.208Z,99.90
2022-08-02T08:27:33.748Z,99.90
2022-08-02T08:30:02.526Z,99.90
2022-08-02T08:32:30.602Z,99.90
2022-08-02T08:34:59.964Z,99.90
2022-08-02T08:37:28.358Z,99.90
2022-08-02T08:39:58.912Z,99.90
2022-08-02T08:42:28.156Z,99.90
2022-08-02T08:44:58.956Z,99.90
2022-08-02T08:47:33.625Z,99.90
2022-08-02T08:50:06.030Z,99.90
2022-08-02T08:52:37.691Z,99.90
2022-08-02T08:55:09.185Z,99.90
2022-08-02T08:57:41.405Z,99.90
2022-08-02T09:00:15.947Z,99.90
2022-08-02T09:02:44.978Z,99.90
2022-08-02T09:05:15.002Z,99.90
2022-08-02T09:07:44.905Z,99.90
2022-08-02T09:10:39.280Z,99.90
2022-08-02T09:13:38.473Z,99.90
2022-08-02T09:16:00.916Z,99.90
2022-08-02T09:18:44.526Z,99.90
2022-08-02T09:21:13.593Z,99.90
2022-08-02T09:23:43.957Z,99.90
2022-08-02T09:26:13.565Z,99.90
2022-08-02T09:28:43.279Z,99.90
2022-08-02T09:31:15.292Z,99.90
2022-08-02T09:33:44.534Z,99.90
2022-08-02T09:36:14.458Z,99.90
2022-08-02T09:38:54.680Z,99.90
2022-08-02T09:41:24.148Z,99.90
2022-08-02T09:44:03.846Z,99.90
2022-08-02T09:46:38.739Z,99.90
2022-08-02T09:49:09.745Z,99.90
2022-08-02T09:51:39.977Z,99.90
2022-08-02T09:54:11.738Z,99.90
2022-08-02T09:56:49.512Z,99.90
2022-08-02T09:59:19.175Z,99.90
2022-08-02T10:01:50.682Z,99.90
2022-08-02T10:04:30.440Z,99.90
2022-08-02T10:07:03.704Z,99.90
2022-08-02T10:09:32.095Z,99.90
2022-08-02T10:12:01.111Z,99.90
2022-08-02T10:14:29.540Z,99.90
2022-08-02T10:16:59.570Z,99.40
2022-08-02T10:20:00.692Z,98.90
2022-08-02T10:22:19.443Z,99.10
2022-08-02T10:24:49.021Z,97.60
2022-08-02T10:27:19.964Z,97.00
2022-08-02T10:29:54.083Z,98.30
2022-08-02T10:32:30.999Z,98.50
2022-08-02T10:35:20.198Z,98.30
2022-08-02T10:37:55.545Z,96.70
2022-08-02T10:40:27.375Z,96.90
2022-08-02T10:43:00.617Z,97.50
2022-08-02T10:45:29.932Z,97.60
2022-08-02T10:48:01.170Z,97.70
2022-08-02T10:50:55.051Z,97.20
2022-08-02T10:53:28.914Z,96.50
2022-08-02T10:55:59.345Z,95.40
2022-08-02T10:58:30.201Z,96.20
2022-08-02T11:00:59.937Z,95.40
2022-08-02T11:03:46.206Z,94.60
2022-08-02T11:06:25.446Z,94.60
2022-08-02T11:09:32.413Z,94.80
2022-08-02T11:12:03.830Z,95.80
2022-08-02T11:14:33.570Z,95.70
2022-08-02T11:17:16.445Z,94.10
2022-08-02T11:20:20.928Z,94.40
2022-08-02T11:22:50.371Z,95.40
2022-08-02T11:26:02.180Z,93.40
2022-08-02T11:28:25.285Z,93.00
2022-08-02T11:31:01.320Z,92.20
2022-08-02T11:33:35.990Z,92.10
2022-08-02T11:36:07.692Z,93.10
2022-08-02T11:38:36.388Z,93.50
2022-08-02T11:41:06.047Z,91.70
2022-08-02T11:43:38.441Z,90.90
2022-08-02T11:46:13.217Z,92.30
2022-08-02T11:48:42.845Z,92.40
2022-08-02T11:51:15.558Z,92.10
2022-08-02T11:53:45.967Z,92.30
2022-08-02T11:56:17.896Z,91.70
2022-08-02T11:59:03.427Z,92.60
2022-08-02T12:01:32.658Z,91.40
2022-08-02T12:04:13.204Z,92.40
2022-08-02T12:06:42.777Z,92.00
2022-08-02T12:09:17.638Z,91.90
2022-08-02T12:11:50.062Z,92.20
2022-08-02T12:14:18.317Z,92.50
2022-08-02T12:17:04.275Z,93.40
2022-08-02T12:19:32.491Z,93.70
2022-08-02T12:22:18.472Z,91.80
2022-08-02T12:24:49.179Z,91.80
2022-08-02T12:27:35.178Z,93.30
2022-08-02T12:30:07.438Z,93.90
2022-08-02T12:32:36.126Z,93.60
2022-08-02T12:35:08.194Z,94.70
2022-08-02T12:37:40.798Z,94.20
2022-08-02T12:40:26.479Z,94.10
2022-08-02T12:42:58.369Z,94.00
2022-08-02T12:45:40.804Z,94.20
2022-08-02T12:48:10.230Z,94.80
2022-08-02T12:50:39.573Z,94.80
2022-08-02T12:53:11.250Z,94.70
2022-08-02T12:56:02.298Z,95.30
2022-08-02T12:58:31.597Z,95.20
2022-08-02T13:01:01.406Z,95.90
2022-08-02T13:04:09.663Z,96.50
2022-08-02T13:09:16.328Z,96.00
2022-08-02T13:11:44.750Z,96.10
2022-08-02T13:14:13.298Z,96.10
2022-08-02T13:16:42.444Z,95.90
2022-08-02T13:19:10.864Z,96.80
2022-08-02T13:21:40.927Z,97.10
2022-08-02T13:24:41.349Z,97.30
2022-08-02T13:27:16.630Z,97.40
2022-08-02T13:29:45.034Z,96.70
2022-08-02T13:32:13.474Z,96.90
2022-08-02T13:34:41.850Z,96.80
2022-08-02T13:37:10.339Z,97.30
2022-08-02T13:39:40.101Z,97.30
2022-08-02T13:42:08.454Z,97.50
2022-08-02T13:44:44.843Z,97.60
2022-08-02T13:47:13.018Z,97.20
2022-08-02T13:49:50.131Z,97.80
2022-08-02T13:52:20.059Z,97.50
2022-08-02T13:54:49.584Z,98.00
2022-08-02T13:57:17.804Z,97.80
2022-08-02T13:59:57.262Z,97.90
2022-08-02T14:02:28.149Z,98.00
2022-08-02T14:04:56.768Z,98.30
2022-08-02T14:07:25.099Z,98.80
2022-08-02T14:09:54.656Z,98.00
2022-08-02T14:12:22.847Z,98.40
2022-08-02T14:14:51.261Z,98.30
2022-08-02T14:17:19.734Z,98.40
2022-08-02T14:19:47.935Z,98.70
2022-08-02T14:22:16.081Z,98.00
2022-08-02T14:24:44.602Z,98.70
2022-08-02T14:27:14.202Z,98.20
2022-08-02T14:29:42.308Z,98.60
2022-08-02T14:32:10.855Z,98.60
2022-08-02T14:34:39.247Z,98.90
2022-08-02T14:37:07.337Z,99.20
2022-08-02T14:39:43.295Z,99.10
2022-08-02T14:42:25.036Z,99.30
2022-08-02T14:44:53.110Z,99.70
2022-08-02T14:47:21.284Z,99.30
2022-08-02T14:49:50.525Z,99.90
2022-08-02T14:52:19.302Z,99.90
2022-08-02T14:54:47.523Z,99.40
2022-08-02T14:57:16.235Z,99.90
2022-08-02T14:59:45.813Z,99.70
2022-08-02T15:02:14.594Z,99.90
2022-08-02T15:04:44.001Z,99.60
2022-08-02T15:07:13.889Z,99.90
2022-08-02T15:09:42.384Z,99.90
2022-08-02T15:12:11.764Z,99.90
2022-08-02T15:14:40.776Z,99.90
2022-08-02T15:17:10.758Z,99.90
2022-08-02T15:19:58.943Z,99.90
2022-08-02T15:22:29.414Z,99.90
2022-08-02T15:24:59.386Z,99.90
2022-08-02T15:27:27.477Z,99.90
2022-08-02T15:30:00.165Z,99.90
2022-08-02T15:32:30.019Z,99.90
2022-08-02T15:34:58.087Z,99.90
2022-08-02T15:37:26.209Z,99.90
2022-08-02T15:39:59.632Z,99.90
2022-08-02T15:42:30.197Z,99.90
2022-08-02T15:44:59.690Z,99.90
2022-08-02T15:47:29.180Z,99.90
2022-08-02T15:49:58.478Z,99.90
2022-08-02T15:52:27.236Z,99.90
2022-08-02T15:54:55.734Z,99.90
2022-08-02T15:57:24.262Z,99.90
2022-08-02T15:59:53.179Z,99.90
2022-08-02T16:02:21.607Z,99.90
2022-08-02T16:04:51.276Z,99.90
2022-08-02T16:07:19.418Z,99.90
2022-08-02T16:09:47.500Z,99.90
2022-08-02T16:12:15.949Z,99.90
2022-08-02T16:14:45.458Z,99.90
2022-08-02T16:17:15.720Z,99.90
2022-08-02T16:20:10.676Z,99.90
2022-08-02T16:22:42.875Z,99.90
2022-08-02T16:25:17.299Z,99.90
2022-08-02T16:27:57.833Z,99.90
2022-08-02T16:30:33.832Z,99.90
2022-08-02T16:33:01.917Z,99.90
2022-08-02T16:35:31.350Z,99.90
2022-08-02T16:37:59.488Z,99.90
2022-08-02T16:40:27.657Z,99.90
2022-08-02T16:42:55.742Z,99.90
2022-08-02T16:45:23.938Z,99.90
2022-08-02T16:47:55.843Z,99.90
2022-08-02T16:50:28.542Z,99.90
2022-08-02T16:52:59.204Z,99.90
2022-08-02T16:55:29.207Z,99.90
2022-08-02T16:57:58.848Z,99.90
2022-08-02T17:00:27.255Z,99.90
2022-08-02T17:02:59.203Z,99.90
2022-08-02T17:05:37.443Z,99.90
2022-08-02T17:08:17.024Z,99.90
2022-08-02T17:10:46.023Z,99.90
2022-08-02T17:13:14.828Z,99.90
2022-08-02T17:16:01.108Z,99.90
2022-08-02T17:18:32.498Z,99.90
2022-08-02T17:21:04.040Z,99.90
2022-08-02T17:24:02.807Z,99.90
2022-08-02T17:26:22.983Z,99.90
2022-08-02T17:29:16.015Z,99.90
2022-08-02T17:31:43.091Z,99.90
2022-08-02T17:34:12.877Z,99.90
2022-08-02T17:36:45.020Z,99.90
2022-08-02T17:39:19.303Z,99.90
2022-08-02T17:41:49.197Z,99.90
2022-08-02T17:44:37.330Z,99.90
2022-08-02T17:47:10.126Z,99.90
2022-08-02T17:49:43.866Z,99.90
2022-08-02T17:52:49.516Z,99.90
2022-08-02T17:55:03.447Z,99.90
2022-08-02T17:57:55.892Z,99.90
2022-08-02T18:00:20.322Z,99.90
2022-08-02T18:05:39.907Z,99.90
2022-08-02T18:08:22.831Z,99.90
2022-08-02T18:10:53.431Z,99.90
2022-08-02T18:13:21.661Z,99.90
2022-08-02T18:15:50.262Z,99.90
2022-08-02T18:18:19.279Z,99.90
2022-08-02T18:20:57.835Z,99.90
2022-08-02T18:23:25.894Z,99.90
2022-08-02T18:25:57.396Z,99.90
2022-08-02T18:28:26.773Z,99.90
2022-08-02T18:30:55.186Z,99.90
2022-08-02T18:33:58.147Z,99.90
2022-08-02T18:36:24.755Z,99.90
2022-08-02T18:38:53.744Z,99.90
2022-08-02T18:41:23.177Z,99.90
2022-08-02T18:43:52.929Z,99.90
2022-08-02T18:46:21.021Z,99.90
2022-08-02T18:48:49.217Z,99.90
2022-08-02T18:54:06.412Z,99.90
2022-08-02T18:56:38.962Z,99.90
2022-08-02T18:59:07.765Z,99.90
2022-08-02T19:01:46.814Z,99.90
2022-08-02T19:04:27.157Z,99.90
2022-08-02T19:06:56.778Z,99.90
2022-08-02T19:09:35.627Z,99.90
2022-08-02T19:12:05.599Z,99.90
2022-08-02T19:14:33.820Z,99.90
2022-08-02T19:17:54.477Z,99.90
2022-08-02T19:19:51.253Z,99.90
2022-08-02T19:22:20.393Z,99.90
2022-08-02T19:24:51.837Z,99.90
2022-08-02T19:27:25.970Z,99.90
2022-08-02T19:30:02.389Z,99.90
2022-08-02T19:32:40.451Z,99.90
2022-08-02T19:35:30.945Z,99.90
2022-08-02T19:38:08.945Z,99.90
2022-08-02T19:40:38.705Z,99.90
2022-08-02T19:44:27.203Z,99.90
2022-08-02T19:45:57.530Z,99.90
2022-08-02T19:48:26.889Z,99.90
2022-08-02T19:51:01.148Z,99.90
2022-08-02T19:53:47.135Z,99.90
2022-08-02T19:56:20.279Z,99.90
2022-08-02T19:58:54.571Z,99.90
2022-08-02T20:01:36.738Z,99.90
2022-08-02T20:04:06.410Z,99.90
2022-08-02T20:06:34.499Z,99.90
2022-08-02T20:09:04.299Z,99.90
2022-08-02T20:11:34.710Z,99.90
2022-08-02T20:14:05.634Z,99.90
2022-08-02T20:16:35.349Z,99.90
2022-08-02T20:19:07.871Z,99.90
2022-08-02T20:21:42.002Z,99.90
2022-08-02T20:24:14.266Z,99.90
2022-08-02T20:26:47.690Z,99.90
2022-08-02T20:29:43.340Z,99.90
2022-08-02T20:32:07.853Z,99.90
2022-08-02T20:34:37.190Z,99.90
2022-08-02T20:38:01.137Z,99.90
2022-08-02T20:39:54.644Z,99.90
2022-08-02T20:42:26.329Z,99.90
2022-08-02T20:44:56.375Z,99.90
2022-08-02T20:47:38.884Z,99.90
2022-08-02T20:50:30.488Z,99.90
2022-08-02T20:53:00.578Z,99.90
2022-08-02T20:55:31.038Z,99.90
2022-08-02T20:58:02.209Z,99.90
2022-08-02T21:00:32.806Z,99.90
2022-08-02T21:03:02.673Z,99.90
2022-08-02T21:05:53.889Z,99.90
2022-08-02T21:08:21.471Z,99.90
2022-08-02T21:10:52.545Z,99.90
2022-08-02T21:13:24.099Z,99.90
2022-08-02T21:15:55.085Z,99.90
2022-08-02T21:18:39.076Z,99.90
2022-08-02T21:21:10.687Z,99.90
2022-08-02T21:23:44.933Z,99.90
2022-08-02T21:26:19.899Z,99.90
2022-08-02T21:28:57.082Z,99.90
2022-08-02T21:31:29.972Z,99.90
2022-08-02T21:34:00.875Z,99.90
2022-08-02T21:36:31.405Z,99.90
2022-08-02T21:39:04.842Z,99.90
2022-08-02T21:41:39.786Z,99.90
2022-08-02T21:44:16.629Z,99.90
2022-08-02T21:46:49.228Z,99.90
2022-08-02T21:49:18.799Z,99.90
2022-08-02T21:51:48.997Z,99.90
2022-08-02T21:54:39.856Z,99.90
2022-08-02T21:57:15.513Z,99.90
2022-08-02T21:59:45.596Z,99.90
2022-08-02T22:02:16.396Z,99.90
2022-08-02T22:04:47.418Z,99.90
2022-08-02T22:07:17.791Z,99.90
2022-08-02T22:09:52.670Z,99.90
2022-08-02T22:12:25.146Z,99.90
2022-08-02T22:14:56.376Z,99.90
2022-08-02T22:17:51.235Z,99.90
2022-08-02T22:20:20.850Z,99.90
2022-08-02T22:22:53.461Z,99.90
2022-08-02T22:25:36.750Z,99.90
2022-08-02T22:28:38.021Z,99.90
2022-08-02T22:30:58.305Z,99.90
2022-08-02T22:34:00.135Z,99.90
2022-08-02T22:36:30.314Z,99.90
2022-08-02T22:38:58.810Z,99.90
2022-08-02T22:42:01.702Z,99.90
2022-08-02T22:44:16.878Z,99.90
2022-08-02T22:46:47.227Z,99.90
2022-08-02T22:49:37.051Z,99.90
2022-08-02T22:52:07.085Z,99.90
2022-08-02T22:54:35.184Z,99.90
2022-08-02T22:57:03.274Z,99.90
2022-08-02T22:58:45.838Z,99.90
2022-08-02T22:58:57.244Z,99.90
2022-08-02T22:59:39.021Z,99.90
2022-08-02T23:02:07.855Z,99.90
2022-08-02T23:04:37.642Z,99.90
2022-08-02T23:07:06.534Z,99.90
2022-08-02T23:09:34.693Z,99.90
2022-08-02T23:12:02.851Z,99.90
2022-08-02T23:14:30.974Z,99.90
2022-08-02T23:17:25.118Z,99.90
2022-08-02T23:19:54.637Z,99.90
2022-08-02T23:22:29.886Z,99.90
2022-08-02T23:25:01.664Z,99.90
2022-08-02T23:27:29.872Z,99.90
2022-08-02T23:29:58.089Z,99.90
2022-08-02T23:32:26.291Z,99.90
2022-08-02T23:34:56.532Z,99.90
2022-08-02T23:37:25.430Z,99.90
2022-08-02T23:39:53.639Z,99.90
2022-08-02T23:42:23.217Z,99.90
2022-08-02T23:44:51.354Z,99.90
2022-08-02T23:47:19.722Z,99.90
2022-08-02T23:49:48.231Z,99.90
2022-08-02T23:52:18.463Z,99.90
2022-08-02T23:54:46.852Z,99.90
2022-08-02T23:57:20.921Z,99.90
2022-08-02T23:59:51.086Z,99.90
